X  Luk Metar data     KDNN Dalton Municipal Airport
Temperatur
12°C Temperatur
-4°C Duggpunkt
33% Fugtighed



Vind
13 KM/T
8 MPT
4 M/S
7 KNOB



150°
SSØ
Nuværende forhold

For det meste spredte skyer For det meste spredte skyer
Tryk 1026.72 (hPa) - 30.32 (inHg)
Sigt 10 (mil) - 16.1 (km)
Lufthavn
Lufthavnskode KDNN

Lokation: Dalton Municipal Airport
Afstand: 34 (km)

Metar:
KDNN 281915Z AUTO 15007KT 10SM SCT240 12/M04 A3032 RMK AO2 T01231042

Tid: 01-28-2023 14:15 EST